Time;durP1;ratioP1;P1;durP2;ratioP2;P2;SDS_P1;SDS_P2;PMS_P1;PMS_P2;Temp;Humidity;BMP_temperature;BMP_pressure;BME280_temperature;BME280_humidity;BME280_pressure;Samples;Min_cycle;Max_cycle;Signal;HPM_P1;HPM_P2
2021/11/19 00:01:32;;;;;;;24.47;10.63;;;6.80;99.90;;;;;;5073013;28;20180;-81
2021/11/19 00:03:57;;;;;;;30.57;11.30;;;;;;;;;;5072148;28;20273;-81
2021/11/19 00:06:24;;;;;;;21.20;10.47;;;7.00;99.90;;;;;;5071484;28;20322;-82
2021/11/19 00:08:50;;;;;;;21.13;10.63;;;7.10;99.90;;;;;;5072374;28;20194;-82
2021/11/19 00:11:20;;;;;;;22.63;10.90;;;6.80;99.90;;;;;;5071562;28;20179;-80
2021/11/19 00:13:47;;;;;;;22.77;11.27;;;6.80;99.90;;;;;;5072126;28;20197;-82
2021/11/19 00:16:14;;;;;;;25.80;10.90;;;6.80;99.90;;;;;;5072151;28;20207;-82
2021/11/19 00:18:41;;;;;;;24.03;12.13;;;6.80;99.90;;;;;;5073215;28;20183;-82
2021/11/19 00:21:08;;;;;;;21.23;10.50;;;6.80;99.90;;;;;;5057057;28;20665;-82
2021/11/19 00:23:34;;;;;;;18.90;9.37;;;6.80;99.90;;;;;;5059559;28;20236;-81
2021/11/19 00:26:00;;;;;;;21.80;9.63;;;6.80;99.90;;;;;;5077808;28;20575;-82
2021/11/19 00:28:27;;;;;;;24.17;11.67;;;6.80;99.90;;;;;;5059457;28;20187;-81
2021/11/19 00:30:53;;;;;;;22.53;10.53;;;;;;;;;;5078262;28;20199;-82
2021/11/19 00:33:20;;;;;;;25.23;11.07;;;6.80;99.90;;;;;;5078129;28;20266;-82
2021/11/19 00:35:47;;;;;;;27.17;12.20;;;6.80;99.90;;;;;;5060767;28;20207;-82
2021/11/19 00:38:15;;;;;;;30.43;11.53;;;6.80;99.90;;;;;;5076129;28;20631;-83
2021/11/19 00:40:54;;;;;;;24.57;11.63;;;6.90;99.90;;;;;;5077348;28;20178;-82
2021/11/19 00:43:20;;;;;;;20.57;10.50;;;6.80;99.90;;;;;;5076853;28;20179;-83
2021/11/19 00:45:47;;;;;;;29.20;11.53;;;;;;;;;;5058594;28;20594;-82
2021/11/19 00:48:15;;;;;;;20.73;9.53;;;6.80;99.90;;;;;;5076589;28;20179;-83
2021/11/19 00:50:46;;;;;;;17.17;9.47;;;6.80;99.90;;;;;;5077357;28;20312;-81
2021/11/19 00:53:12;;;;;;;24.50;11.20;;;6.70;99.90;;;;;;5078859;28;20635;-81
2021/11/19 00:55:38;;;;;;;25.83;10.80;;;6.80;99.90;;;;;;5076356;28;20206;-80
2021/11/19 00:58:05;;;;;;;26.43;12.07;;;6.70;99.90;;;;;;5076206;28;20183;-81
2021/11/19 01:00:36;;;;;;;17.13;9.83;;;6.70;99.90;;;;;;5076436;28;20540;-82
2021/11/19 01:03:02;;;;;;;23.60;11.13;;;6.70;99.90;;;;;;5076534;28;20175;-81
2021/11/19 01:05:28;;;;;;;30.07;12.33;;;6.70;99.90;;;;;;5075390;28;20227;-81
2021/11/19 01:07:55;;;;;;;20.97;9.50;;;6.60;99.90;;;;;;5077465;28;20214;-81
2021/11/19 01:10:26;;;;;;;27.43;11.73;;;6.70;99.90;;;;;;5077167;28;20179;-81
2021/11/19 01:12:52;;;;;;;21.47;10.17;;;6.70;99.90;;;;;;5077122;28;20187;-81
2021/11/19 01:15:27;;;;;;;25.97;11.57;;;6.60;99.90;;;;;;5076078;28;20207;-81
2021/11/19 01:18:04;;;;;;;20.70;10.27;;;6.60;99.90;;;;;;5075124;28;20265;-82
2021/11/19 01:20:58;;;;;;;21.67;10.27;;;6.70;99.90;;;;;;5075954;28;20212;-81
2021/11/19 01:23:26;;;;;;;23.47;10.53;;;6.70;99.90;;;;;;5071194;28;20636;-81
2021/11/19 01:25:58;;;;;;;17.30;9.27;;;6.70;99.90;;;;;;5079871;28;20265;-82
2021/11/19 01:28:24;;;;;;;18.90;9.07;;;6.70;99.90;;;;;;5091352;28;20147;-82
2021/11/19 01:30:59;;;;;;;22.73;10.97;;;6.80;99.90;;;;;;5092515;28;20183;-82
2021/11/19 01:33:26;;;;;;;19.90;10.10;;;6.70;99.90;;;;;;5091616;28;20186;-82
2021/11/19 01:35:52;;;;;;;18.53;9.17;;;6.80;99.90;;;;;;5097026;28;20226;-82
2021/11/19 01:38:19;;;;;;;27.43;10.33;;;6.80;99.90;;;;;;5100209;28;20223;-82
2021/11/19 01:40:53;;;;;;;23.60;10.23;;;6.90;99.90;;;;;;5099294;28;20163;-80
2021/11/19 01:43:19;;;;;;;12.03;7.80;;;6.80;99.90;;;;;;5100022;28;20161;-80
2021/11/19 01:45:53;;;;;;;18.33;9.90;;;6.90;99.90;;;;;;5082734;28;20163;-82
2021/11/19 01:48:23;;;;;;;21.13;9.33;;;6.90;99.90;;;;;;5094814;28;20160;-82
2021/11/19 01:51:04;;;;;;;16.50;9.23;;;6.90;99.90;;;;;;5093001;28;20176;-82
2021/11/19 01:53:44;;;;;;;21.00;8.03;;;6.70;99.90;;;;;;5098156;28;20183;-81
2021/11/19 01:56:20;;;;;;;16.27;7.93;;;6.90;99.90;;;;;;5098853;28;20309;-81
2021/11/19 01:58:57;;;;;;;19.87;9.80;;;6.90;99.90;;;;;;5099437;28;20159;-82
2021/11/19 02:01:35;;;;;;;29.30;9.03;;;7.00;99.90;;;;;;5084930;28;20351;-83
2021/11/19 02:04:08;;;;;;;18.43;8.30;;;7.00;99.90;;;;;;5074317;28;20222;-82
2021/11/19 02:06:39;;;;;;;9.47;6.43;;;7.10;99.90;;;;;;5073182;28;20321;-82
2021/11/19 02:09:18;;;;;;;13.97;6.63;;;7.00;99.90;;;;;;5074326;28;20175;-81
2021/11/19 02:11:59;;;;;;;16.17;8.87;;;7.10;99.90;;;;;;5073259;28;20206;-81
2021/11/19 02:14:38;;;;;;;13.73;8.33;;;7.10;99.90;;;;;;5074458;28;20171;-83
2021/11/19 02:17:06;;;;;;;16.60;7.90;;;7.10;99.90;;;;;;5074912;28;20191;-81
2021/11/19 02:19:55;;;;;;;11.70;6.47;;;7.20;99.90;;;;;;5073892;28;20171;-81
2021/11/19 02:22:26;;;;;;;18.23;8.33;;;7.20;99.90;;;;;;5073339;28;20182;-81
2021/11/19 02:24:52;;;;;;;16.40;8.33;;;;;;;;;;5074814;28;20163;-82
2021/11/19 02:27:41;;;;;;;10.37;6.90;;;7.20;99.90;;;;;;5072809;28;20283;-81
2021/11/19 02:30:14;;;;;;;14.90;8.27;;;7.20;99.90;;;;;;5073295;28;20254;-81
2021/11/19 02:32:47;;;;;;;16.77;8.60;;;7.20;99.90;;;;;;5073404;28;20191;-81
2021/11/19 02:35:21;;;;;;;16.13;8.20;;;7.20;99.90;;;;;;5074453;28;20662;-82
2021/11/19 02:37:57;;;;;;;18.93;8.73;;;7.20;99.90;;;;;;5073600;28;20189;-82
2021/11/19 02:40:30;;;;;;;16.00;7.07;;;7.20;99.90;;;;;;5072999;28;20207;-82
2021/11/19 02:43:00;;;;;;;14.03;7.90;;;7.30;99.90;;;;;;5074245;28;20182;-83
2021/11/19 02:45:39;;;;;;;11.53;7.50;;;7.30;99.90;;;;;;5074138;28;20258;-82
2021/11/19 02:48:05;;;;;;;12.67;6.73;;;;;;;;;;5073566;28;20171;-82
2021/11/19 02:50:32;;;;;;;12.60;8.60;;;7.30;99.90;;;;;;5055378;28;20194;-82
2021/11/19 02:52:58;;;;;;;18.50;7.93;;;7.30;99.90;;;;;;5073582;28;20179;-81
2021/11/19 02:55:33;;;;;;;16.77;8.87;;;7.30;99.90;;;;;;5073233;28;20245;-82
2021/11/19 02:58:00;;;;;;;14.13;9.37;;;7.30;99.90;;;;;;5073488;28;20228;-82
2021/11/19 03:00:30;;;;;;;12.33;6.73;;;7.30;99.90;;;;;;5073577;28;20202;-82
2021/11/19 03:02:56;;;;;;;19.10;9.70;;;;;;;;;;5073345;28;20179;-82
2021/11/19 03:05:27;;;;;;;13.07;8.60;;;7.30;99.90;;;;;;5071723;28;20248;-82
2021/11/19 03:07:53;;;;;;;19.33;10.57;;;;;;;;;;5072948;28;20182;-82
2021/11/19 03:10:23;;;;;;;13.93;9.40;;;7.20;99.90;;;;;;5073537;28;20187;-82
2021/11/19 03:12:50;;;;;;;23.77;9.87;;;;;;;;;;5072044;28;20183;-81
2021/11/19 03:15:24;;;;;;;15.67;10.10;;;7.10;99.90;;;;;;5071927;28;20572;-82
2021/11/19 03:17:50;;;;;;;22.97;9.30;;;;;;;;;;5071484;28;20179;-82
2021/11/19 03:20:18;;;;;;;17.17;10.20;;;6.90;99.90;;;;;;5073621;28;20176;-82
2021/11/19 03:22:44;;;;;;;14.93;9.47;;;;;;;;;;5071560;28;20257;-82
2021/11/19 03:25:13;;;;;;;14.53;7.57;;;6.70;99.90;;;;;;5073166;28;20256;-82
2021/11/19 03:27:39;;;;;;;26.00;10.60;;;6.60;99.90;;;;;;5071496;28;20190;-82
2021/11/19 03:30:08;;;;;;;15.23;8.77;;;6.70;99.90;;;;;;5071884;28;20572;-82
2021/11/19 03:32:34;;;;;;;24.63;10.90;;;;;;;;;;5071385;28;20266;-82
2021/11/19 03:35:01;;;;;;;25.03;12.50;;;;;;;;;;5071897;28;20313;-82
2021/11/19 03:37:27;;;;;;;19.23;11.10;;;;;;;;;;5071638;28;20190;-82
2021/11/19 03:39:53;;;;;;;20.77;10.97;;;;;;;;;;5071568;28;20988;-82
2021/11/19 03:42:21;;;;;;;15.60;10.07;;;6.40;99.90;;;;;;5055184;28;20582;-82
2021/11/19 03:44:53;;;;;;;24.67;10.30;;;6.50;99.90;;;;;;5072650;28;20179;-82
2021/11/19 03:47:26;;;;;;;26.70;9.80;;;6.80;99.90;;;;;;5073028;28;20182;-82
2021/11/19 03:49:53;;;;;;;15.07;11.13;;;6.50;99.90;;;;;;5071211;28;20531;-82
2021/11/19 03:52:19;;;;;;;18.53;11.10;;;;;;;;;;5071677;28;20256;-82
2021/11/19 03:54:47;;;;;;;17.33;10.90;;;6.60;99.90;;;;;;5072949;28;20638;-82
2021/11/19 03:57:14;;;;;;;21.10;10.23;;;6.40;99.90;;;;;;5076418;28;20210;-82
2021/11/19 03:59:41;;;;;;;18.53;11.03;;;;;;;;;;5075514;28;20194;-83
2021/11/19 04:02:07;;;;;;;20.83;11.20;;;6.50;99.90;;;;;;5075677;28;20179;-82
2021/11/19 04:04:35;;;;;;;17.80;10.90;;;6.50;99.90;;;;;;5075743;28;20228;-82
2021/11/19 04:07:03;;;;;;;21.83;11.77;;;;;;;;;;5075649;28;20255;-82
2021/11/19 04:09:29;;;;;;;18.47;11.47;;;;;;;;;;5075484;28;20186;-83
2021/11/19 04:11:55;;;;;;;17.23;10.53;;;6.50;99.90;;;;;;5074715;28;20265;-82
2021/11/19 04:14:21;;;;;;;18.93;11.43;;;;;;;;;;5076642;28;20179;-82
2021/11/19 04:16:50;;;;;;;18.97;11.40;;;6.50;99.90;;;;;;5075904;28;20203;-82
2021/11/19 04:19:18;;;;;;;18.20;10.97;;;6.50;99.90;;;;;;5075182;28;20198;-83
2021/11/19 04:21:47;;;;;;;16.40;11.00;;;6.60;99.90;;;;;;5076094;28;20254;-81
2021/11/19 04:24:17;;;;;;;18.57;10.27;;;6.50;99.90;;;;;;5074823;28;20171;-81
2021/11/19 04:26:43;;;;;;;16.23;11.00;;;6.60;99.90;;;;;;5075954;28;20627;-81
2021/11/19 04:29:09;;;;;;;17.90;10.73;;;;;;;;;;5076020;28;20183;-81
2021/11/19 04:31:35;;;;;;;14.30;9.90;;;;;;;;;;5075920;28;20258;-81
2021/11/19 04:34:04;;;;;;;16.17;8.93;;;6.60;99.90;;;;;;5075781;28;20194;-82
2021/11/19 04:36:31;;;;;;;14.80;9.80;;;;;;;;;;5076188;28;20210;-81
2021/11/19 04:38:57;;;;;;;14.87;8.20;;;;;;;;;;5075528;28;20600;-81
2021/11/19 04:41:23;;;;;;;13.13;9.50;;;6.60;99.90;;;;;;5058378;28;20270;-81
2021/11/19 04:43:49;;;;;;;12.87;9.63;;;6.80;99.90;;;;;;5074621;28;20179;-82
2021/11/19 04:46:14;;;;;;;13.57;9.33;;;6.70;99.90;;;;;;5058177;28;20248;-81
2021/11/19 04:48:41;;;;;;;12.00;8.70;;;6.60;99.90;;;;;;5074580;28;20639;-81
2021/11/19 04:51:14;;;;;;;11.33;6.73;;;6.70;99.90;;;;;;5075709;28;20317;-82
2021/11/19 04:53:40;;;;;;;12.07;8.17;;;;;;;;;;5075720;28;20285;-81
2021/11/19 04:56:07;;;;;;;15.07;8.50;;;;;;;;;;5075222;28;20214;-81
2021/11/19 04:58:33;;;;;;;11.30;6.90;;;;;;;;;;5057961;28;20191;-82
2021/11/19 05:01:05;;;;;;;11.13;7.93;;;6.70;99.90;;;;;;5074210;28;20644;-81
2021/11/19 05:03:32;;;;;;;10.57;6.57;;;6.70;99.90;;;;;;5074468;28;20636;-81
2021/11/19 05:05:58;;;;;;;12.83;8.10;;;6.70;99.90;;;;;;5074011;28;20231;-81
2021/11/19 05:08:25;;;;;;;10.60;6.90;;;6.70;99.90;;;;;;5074489;28;20182;-82
2021/11/19 05:10:57;;;;;;;11.67;7.63;;;6.70;99.90;;;;;;5094694;28;20710;-81
2021/11/19 05:13:28;;;;;;;10.70;6.60;;;6.70;99.90;;;;;;5094105;28;20179;-81
2021/11/19 05:15:55;;;;;;;9.77;6.47;;;;;;;;;;5092207;28;20212;-81
2021/11/19 05:18:22;;;;;;;11.97;7.80;;;6.70;99.90;;;;;;5093774;28;20187;-81
2021/11/19 05:20:49;;;;;;;11.93;7.17;;;6.80;99.90;;;;;;5094720;28;20661;-82
2021/11/19 05:23:15;;;;;;;11.53;7.67;;;;;;;;;;5094926;28;20229;-81
2021/11/19 05:25:41;;;;;;;10.33;7.73;;;;;;;;;;5093018;28;20224;-82
2021/11/19 05:28:08;;;;;;;8.40;6.97;;;6.80;99.90;;;;;;5093431;28;20528;-81
2021/11/19 05:30:34;;;;;;;11.23;7.67;;;;;;;;;;5092353;28;20590;-81
2021/11/19 05:33:00;;;;;;;8.87;6.30;;;;;;;;;;5093089;28;20646;-82
2021/11/19 05:35:26;;;;;;;12.10;6.70;;;;;;;;;;5094118;28;20202;-81
2021/11/19 05:37:52;;;;;;;10.47;6.33;;;;;;;;;;5093841;28;20551;-82
2021/11/19 05:40:20;;;;;;;9.90;6.03;;;6.70;99.90;;;;;;5090230;28;20183;-81
2021/11/19 05:42:46;;;;;;;8.20;5.37;;;;;;;;;;5079444;28;20636;-81
2021/11/19 05:45:15;;;;;;;8.00;5.33;;;6.80;99.90;;;;;;5080435;28;20179;-81
2021/11/19 05:47:41;;;;;;;7.50;5.67;;;;;;;;;;5086068;28;20266;-82
2021/11/19 05:50:09;;;;;;;9.53;6.50;;;6.70;99.90;;;;;;5079972;28;20217;-81
2021/11/19 05:52:35;;;;;;;11.07;5.93;;;;;;;;;;5089611;28;20233;-81
2021/11/19 05:55:02;;;;;;;7.50;5.93;;;;;;;;;;5113137;28;20175;-83
2021/11/19 05:57:28;;;;;;;7.83;5.77;;;;;;;;;;5112286;28;20221;-81
2021/11/19 05:59:55;;;;;;;8.83;5.90;;;6.80;99.90;;;;;;5104860;28;20509;-82
2021/11/19 06:02:21;;;;;;;7.83;5.47;;;;;;;;;;5086387;28;20274;-82
2021/11/19 06:04:48;;;;;;;6.87;4.73;;;;;;;;;;5088014;28;20195;-82
2021/11/19 06:07:16;;;;;;;5.90;4.47;;;;;;;;;;5087742;28;20218;-83
2021/11/19 06:09:42;;;;;;;7.23;4.77;;;;;;;;;;5087840;28;20188;-82
2021/11/19 06:12:18;;;;;;;7.30;5.40;;;6.80;99.90;;;;;;5071569;28;20551;-84
2021/11/19 06:14:56;;;;;;;7.13;5.03;;;6.30;99.90;;;;;;5086331;28;20182;-81
2021/11/19 06:17:30;;;;;;;9.83;5.33;;;6.80;99.90;;;;;;5091200;28;20186;-82
2021/11/19 06:19:59;;;;;;;6.10;5.20;;;6.80;99.90;;;;;;5085356;28;20178;-81
2021/11/19 06:22:33;;;;;;;6.93;5.10;;;6.80;99.90;;;;;;5087573;28;20179;-81
2021/11/19 06:24:59;;;;;;;6.10;4.77;;;;;;;;;;5091537;28;20186;-82
2021/11/19 06:27:30;;;;;;;6.27;4.93;;;6.90;99.90;;;;;;5089975;28;20183;-82
2021/11/19 06:29:58;;;;;;;5.93;4.93;;;6.90;99.90;;;;;;5085467;28;20183;-81
2021/11/19 06:32:25;;;;;;;6.50;4.80;;;6.90;99.90;;;;;;5094233;28;20179;-81
2021/11/19 06:34:53;;;;;;;8.47;5.23;;;6.90;99.90;;;;;;5086267;28;20186;-81
2021/11/19 06:37:19;;;;;;;6.77;4.70;;;6.90;99.90;;;;;;5083470;28;20198;-82
2021/11/19 06:39:45;;;;;;;7.13;5.20;;;7.00;99.90;;;;;;5090658;28;20190;-82
2021/11/19 06:42:13;;;;;;;7.17;4.90;;;7.00;99.90;;;;;;5089934;28;20191;-83
2021/11/19 06:44:41;;;;;;;12.57;8.13;;;7.00;99.90;;;;;;5089653;28;20688;-82
2021/11/19 06:47:08;;;;;;;7.00;5.43;;;7.00;99.90;;;;;;5089685;28;20496;-81
2021/11/19 06:49:34;;;;;;;4.93;3.90;;;7.00;99.90;;;;;;5087740;28;20210;-85
2021/11/19 06:52:00;;;;;;;5.73;4.77;;;7.00;99.90;;;;;;5090403;28;20182;-82
2021/11/19 06:54:25;;;;;;;5.27;4.03;;;7.00;99.90;;;;;;5089180;28;20186;-83
2021/11/19 06:56:52;;;;;;;6.67;4.77;;;7.10;99.90;;;;;;5089001;28;20229;-82
2021/11/19 06:59:19;;;;;;;6.33;4.53;;;7.00;99.90;;;;;;5092496;28;20761;-81
2021/11/19 07:01:45;;;;;;;5.47;4.37;;;7.00;99.90;;;;;;5088391;28;20187;-81
2021/11/19 07:04:11;;;;;;;5.10;4.47;;;;;;;;;;5090641;28;20217;-82
2021/11/19 07:06:38;;;;;;;5.63;4.40;;;7.10;99.90;;;;;;5089233;28;20245;-84
2021/11/19 07:09:06;;;;;;;4.63;4.13;;;7.10;99.90;;;;;;5085523;28;20212;-85
2021/11/19 07:11:33;;;;;;;2.43;2.23;;;7.20;99.90;;;;;;5087442;28;20197;-83
2021/11/19 07:13:59;;;;;;;5.57;4.40;;;;;;;;;;5087078;28;20182;-83
2021/11/19 07:16:27;;;;;;;4.57;4.03;;;7.20;99.90;;;;;;5087696;28;20210;-81
2021/11/19 07:18:54;;;;;;;5.17;4.63;;;7.30;99.90;;;;;;5089170;28;20190;-84
2021/11/19 07:21:22;;;;;;;5.03;4.07;;;7.30;99.90;;;;;;5082656;28;20293;-83
2021/11/19 07:23:48;;;;;;;4.40;3.70;;;7.30;99.90;;;;;;5085254;28;20181;-82
2021/11/19 07:26:14;;;;;;;3.87;3.47;;;;;;;;;;5084275;28;20182;-82
2021/11/19 07:28:40;;;;;;;4.10;3.70;;;7.20;99.90;;;;;;5083573;28;20316;-83
2021/11/19 07:31:09;;;;;;;5.63;4.70;;;7.30;99.90;;;;;;5089406;28;20174;-83
2021/11/19 07:33:36;;;;;;;5.87;4.03;;;7.30;99.90;;;;;;5091027;28;20194;-82
2021/11/19 07:36:06;;;;;;;4.93;3.60;;;7.30;99.90;;;;;;5092011;28;20213;-83
2021/11/19 07:38:32;;;;;;;4.13;3.53;;;7.40;99.90;;;;;;5090466;28;20226;-82
2021/11/19 07:40:58;;;;;;;3.50;3.20;;;7.30;99.90;;;;;;5087510;28;20202;-81
2021/11/19 07:43:27;;;;;;;5.97;3.50;;;7.40;99.90;;;;;;5074974;28;20183;-81
2021/11/19 07:45:55;;;;;;;4.00;2.93;;;7.50;99.90;;;;;;5080604;28;20178;-81
2021/11/19 07:48:27;;;;;;;3.30;3.00;;;7.40;99.90;;;;;;5085943;28;20258;-82
2021/11/19 07:50:55;;;;;;;3.37;3.07;;;7.30;99.90;;;;;;5091286;28;20212;-83
2021/11/19 07:53:22;;;;;;;4.33;3.00;;;7.30;99.90;;;;;;5089188;28;20185;-81
2021/11/19 07:55:49;;;;;;;3.83;3.37;;;7.40;99.90;;;;;;5090818;28;20208;-81
2021/11/19 07:58:15;;;;;;;8.83;4.70;;;7.40;99.90;;;;;;5090991;28;20187;-82
2021/11/19 08:00:44;;;;;;;3.97;3.47;;;7.40;99.90;;;;;;5068947;28;20188;-84
2021/11/19 08:03:10;;;;;;;5.67;3.63;;;7.40;99.90;;;;;;5104702;28;20222;-83
2021/11/19 08:05:36;;;;;;;16.30;8.93;;;;;;;;;;5107304;28;20824;-84
2021/11/19 08:08:02;;;;;;;7.87;5.17;;;;;;;;;;5112419;28;20186;-84
2021/11/19 08:10:28;;;;;;;9.87;6.23;;;7.50;99.90;;;;;;5100309;28;20204;-84
2021/11/19 08:12:54;;;;;;;9.77;5.07;;;7.40;99.90;;;;;;5107478;28;20183;-89
2021/11/19 08:15:24;;;;;;;5.97;4.27;;;7.50;99.90;;;;;;5110873;28;20407;-85
2021/11/19 08:17:52;;;;;;;6.53;5.17;;;7.50;99.90;;;;;;5105069;28;20175;-88
2021/11/19 08:20:22;;;;;;;8.10;5.30;;;7.50;99.90;;;;;;5111363;28;20166;-86
2021/11/19 08:22:49;;;;;;;5.47;3.97;;;7.50;99.90;;;;;;5101787;28;20166;-87
2021/11/19 08:25:15;;;;;;;4.57;3.70;;;;;;;;;;5107493;28;20197;-86
2021/11/19 08:27:45;;;;;;;5.07;4.17;;;7.50;99.90;;;;;;5114378;28;20179;-88
2021/11/19 08:30:17;;;;;;;5.00;4.23;;;7.50;99.90;;;;;;5110077;28;20197;-93
2021/11/19 08:32:43;;;;;;;5.53;3.53;;;;;;;;;;5114377;27;20226;-92
2021/11/19 08:35:10;;;;;;;5.17;4.17;;;;;;;;;;5109122;28;20187;-83
2021/11/19 08:37:36;;;;;;;4.57;3.73;;;7.50;99.90;;;;;;5093523;28;20183;-83
2021/11/19 08:40:06;;;;;;;4.77;4.13;;;7.60;99.90;;;;;;5092685;28;20194;-83
2021/11/19 08:42:32;;;;;;;4.77;3.13;;;;;;;;;;5075560;28;20179;-85
2021/11/19 08:44:58;;;;;;;5.30;3.73;;;;;;;;;;5094818;28;20189;-83
2021/11/19 08:47:24;;;;;;;5.17;3.97;;;;;;;;;;5092001;28;20182;-83
2021/11/19 08:49:52;;;;;;;6.17;4.60;;;7.70;99.90;;;;;;5094894;28;20189;-82
2021/11/19 08:52:20;;;;;;;4.90;3.80;;;7.60;99.90;;;;;;5084431;28;20204;-83
2021/11/19 08:54:47;;;;;;;4.50;3.57;;;;;;;;;;5088060;28;20175;-83
2021/11/19 08:57:15;;;;;;;5.93;3.87;;;7.70;99.90;;;;;;5078685;28;20234;-83
2021/11/19 08:59:44;;;;;;;6.23;3.87;;;7.70;99.90;;;;;;5082125;28;20179;-83
2021/11/19 09:02:12;;;;;;;6.53;4.57;;;7.80;99.90;;;;;;5084104;28;20190;-82
2021/11/19 09:04:38;;;;;;;5.60;4.37;;;;;;;;;;5092624;28;20179;-84
2021/11/19 09:07:04;;;;;;;8.40;4.50;;;8.10;99.90;;;;;;5081847;28;20574;-84
2021/11/19 09:09:30;;;;;;;5.60;4.70;;;;;;;;;;5096454;28;20185;-84
2021/11/19 09:11:56;;;;;;;6.57;4.97;;;;;;;;;;5081439;28;20175;-87
2021/11/19 09:14:24;;;;;;;5.97;5.17;;;7.90;99.90;;;;;;5074965;28;20183;-84
2021/11/19 09:16:59;;;;;;;3.93;3.40;;;8.10;99.90;;;;;;5076712;28;20565;-83
2021/11/19 09:19:34;;;;;;;5.83;4.00;;;8.00;99.90;;;;;;5083664;28;20213;-85
2021/11/19 09:22:33;;;;;;;4.07;3.13;;;8.00;99.90;;;;;;5080449;28;20169;-85
2021/11/19 09:25:00;;;;;;;8.90;5.00;;;8.00;99.90;;;;;;5086632;28;20231;-82
2021/11/19 09:27:26;;;;;;;8.20;5.03;;;;;;;;;;5102070;28;20245;-85
2021/11/19 09:29:58;;;;;;;14.23;9.67;;;8.10;99.90;;;;;;5097754;28;20175;-82
2021/11/19 09:32:25;;;;;;;15.60;10.27;;;8.10;99.90;;;;;;5096071;28;20209;-83
2021/11/19 09:34:54;;;;;;;8.23;6.30;;;8.20;99.90;;;;;;5087056;28;20190;-83
2021/11/19 09:37:20;;;;;;;9.27;5.00;;;8.20;99.90;;;;;;5079998;28;20264;-83
2021/11/19 09:39:49;;;;;;;6.60;5.40;;;8.30;99.90;;;;;;5086527;28;20172;-83
2021/11/19 09:42:49;;;;;;;6.90;5.20;;;8.60;99.90;;;;;;5094466;28;20182;-83
2021/11/19 09:45:46;;;;;;;16.17;12.67;;;8.10;99.90;;;;;;5089519;28;20709;-84
2021/11/19 09:48:57;;;;;;;12.17;8.63;;;8.40;99.90;;;;;;5076178;28;20194;-83
2021/11/19 09:51:59;;;;;;;12.53;9.17;;;8.60;99.90;;;;;;5003787;28;20275;-84
2021/11/19 09:55:02;;;;;;;12.30;9.83;;;8.70;99.90;;;;;;5086307;28;20174;-81
2021/11/19 09:58:05;;;;;;;18.73;13.23;;;8.60;99.90;;;;;;5083316;28;20203;-83
2021/11/19 10:01:02;;;;;;;20.47;16.13;;;8.60;99.90;;;;;;5092055;28;20636;-84
2021/11/19 10:03:45;;;;;;;20.67;12.13;;;8.40;99.90;;;;;;5079869;28;20668;-83
2021/11/19 10:06:11;;;;;;;10.57;7.97;;;;;;;;;;5075038;28;20230;-86
2021/11/19 10:08:46;;;;;;;9.40;6.90;;;8.30;99.90;;;;;;5089988;28;20191;-83
2021/11/19 10:11:20;;;;;;;9.70;6.70;;;8.60;99.90;;;;;;5083519;28;20587;-84
2021/11/19 10:14:23;;;;;;;9.03;5.97;;;8.60;99.90;;;;;;5086153;28;20177;-82
2021/11/19 10:17:27;;;;;;;6.50;4.80;;;8.50;99.90;;;;;;5088179;28;20194;-82
2021/11/19 10:20:01;;;;;;;6.80;4.90;;;8.60;99.90;;;;;;5082145;28;20179;-85
2021/11/19 10:22:38;;;;;;;7.57;5.40;;;8.60;99.90;;;;;;5074106;28;20210;-84
2021/11/19 10:25:09;;;;;;;8.27;5.47;;;8.70;99.90;;;;;;5080009;28;20182;-82
2021/11/19 10:27:48;;;;;;;7.27;4.90;;;8.60;99.90;;;;;;5084577;28;20623;-82
2021/11/19 10:30:43;;;;;;;6.00;5.07;;;8.30;99.90;;;;;;5082597;28;20171;-83
2021/11/19 10:33:28;;;;;;;6.50;4.83;;;8.50;99.90;;;;;;5093748;28;20185;-83
2021/11/19 10:36:10;;;;;;;9.60;6.37;;;8.50;99.90;;;;;;5088126;28;20228;-86
2021/11/19 10:39:06;;;;;;;7.37;5.47;;;8.50;99.90;;;;;;5107864;28;20242;-90
2021/11/19 10:41:54;;;;;;;6.30;5.07;;;8.80;99.90;;;;;;5108862;28;20186;-84
2021/11/19 10:45:02;;;;;;;5.73;4.60;;;8.90;99.90;;;;;;5090457;28;20183;-82
2021/11/19 10:47:49;;;;;;;10.27;5.60;;;8.70;99.90;;;;;;5092392;28;20223;-85
2021/11/19 10:50:43;;;;;;;7.23;5.60;;;8.70;99.90;;;;;;5089934;28;20175;-84
2021/11/19 10:53:36;;;;;;;9.03;7.10;;;8.70;99.90;;;;;;5083780;28;20182;-84
2021/11/19 10:56:02;;;;;;;8.47;5.20;;;;;;;;;;5091774;28;20202;-83
2021/11/19 10:58:45;;;;;;;8.30;5.50;;;8.70;99.90;;;;;;5089511;28;20186;-84
2021/11/19 11:01:44;;;;;;;6.77;5.10;;;8.70;99.90;;;;;;5083031;28;20189;-83
2021/11/19 11:04:18;;;;;;;8.60;4.83;;;9.00;99.90;;;;;;5104308;28;20541;-84
2021/11/19 11:06:45;;;;;;;7.67;5.33;;;;;;;;;;5083699;28;20678;-83
2021/11/19 11:09:29;;;;;;;6.83;5.57;;;9.10;99.90;;;;;;5087664;28;20178;-83
2021/11/19 11:12:08;;;;;;;7.03;5.70;;;8.80;99.90;;;;;;5089984;28;20224;-83
2021/11/19 11:14:39;;;;;;;11.43;7.37;;;8.80;99.90;;;;;;5091086;28;20335;-83
2021/11/19 11:17:19;;;;;;;15.17;9.87;;;8.60;99.90;;;;;;5080398;28;20205;-83
2021/11/19 11:19:47;;;;;;;9.70;7.10;;;8.90;99.90;;;;;;5080483;28;20179;-84
2021/11/19 11:22:20;;;;;;;16.77;8.97;;;8.90;99.90;;;;;;5086363;28;20175;-83
2021/11/19 11:25:03;;;;;;;7.97;5.97;;;8.80;99.90;;;;;;5085246;28;20178;-83
2021/11/19 11:27:48;;;;;;;5.47;3.97;;;8.90;99.90;;;;;;5081317;28;20173;-84
2021/11/19 11:30:18;;;;;;;7.37;5.10;;;8.90;99.90;;;;;;5089776;28;20565;-83
2021/11/19 11:33:11;;;;;;;5.87;4.80;;;9.30;99.90;;;;;;5080424;28;20190;-82
2021/11/19 11:35:51;;;;;;;6.53;5.30;;;9.20;99.90;;;;;;5077582;28;20243;-84
2021/11/19 11:38:17;;;;;;;6.73;4.90;;;;;;;;;;5080615;28;20227;-83
2021/11/19 11:41:01;;;;;;;6.37;5.23;;;8.70;99.90;;;;;;5088283;28;20274;-83
2021/11/19 11:43:30;;;;;;;10.50;5.63;;;8.90;99.90;;;;;;5088069;28;20185;-83
2021/11/19 11:46:16;;;;;;;8.07;6.20;;;9.00;99.90;;;;;;5085945;28;20186;-84
2021/11/19 11:48:56;;;;;;;7.63;5.20;;;9.00;99.90;;;;;;5089757;28;20598;-83
2021/11/19 11:51:29;;;;;;;10.07;6.67;;;9.10;99.90;;;;;;5089875;28;20179;-83
2021/11/19 11:54:25;;;;;;;9.40;5.80;;;9.40;99.90;;;;;;5089228;28;20193;-80
2021/11/19 11:57:31;;;;;;;14.77;6.83;;;9.10;99.90;;;;;;5086332;28;20228;-82
2021/11/19 12:00:08;;;;;;;9.70;6.07;;;9.20;99.90;;;;;;5059236;28;20194;-84
2021/11/19 12:02:38;;;;;;;8.00;5.40;;;9.20;99.90;;;;;;5085713;28;20171;-81
2021/11/19 12:05:22;;;;;;;11.03;7.33;;;9.40;99.90;;;;;;5086951;28;20191;-82
2021/11/19 12:08:13;;;;;;;9.20;6.20;;;9.90;99.90;;;;;;5086774;28;20639;-84
2021/11/19 12:11:05;;;;;;;6.07;4.97;;;9.10;99.90;;;;;;5087965;28;20269;-82
2021/11/19 12:13:43;;;;;;;8.93;6.13;;;9.30;99.90;;;;;;5090142;28;20556;-82
2021/11/19 12:16:49;;;;;;;8.43;5.10;;;9.30;99.90;;;;;;5086500;28;20257;-82
2021/11/19 12:19:40;;;;;;;7.53;3.90;;;8.90;99.90;;;;;;5089636;28;20274;-82
2021/11/19 12:22:33;;;;;;;7.43;5.40;;;9.50;99.90;;;;;;5093246;28;20269;-82
2021/11/19 12:25:29;;;;;;;5.50;4.37;;;9.30;99.90;;;;;;5095878;28;20662;-83
2021/11/19 12:27:58;;;;;;;8.50;7.23;;;9.30;99.90;;;;;;5093072;28;20712;-82
2021/11/19 12:30:35;;;;;;;8.37;6.17;;;9.40;99.90;;;;;;5095806;28;20712;-82
2021/11/19 12:33:14;;;;;;;7.23;4.83;;;9.40;99.90;;;;;;5095658;28;20202;-84
2021/11/19 12:35:47;;;;;;;6.37;4.60;;;9.30;99.90;;;;;;5095406;28;20210;-84
2021/11/19 12:38:12;;;;;;;5.80;4.50;;;;;;;;;;5094617;28;20224;-83
2021/11/19 12:40:51;;;;;;;6.70;4.80;;;9.40;99.90;;;;;;5094882;28;20272;-84
2021/11/19 12:43:42;;;;;;;13.83;4.77;;;9.30;99.90;;;;;;5095618;28;20185;-82
2021/11/19 12:46:51;;;;;;;5.30;3.57;;;9.20;99.90;;;;;;5090760;28;20298;-83
2021/11/19 12:49:23;;;;;;;5.60;4.27;;;9.00;99.90;;;;;;5088820;28;20606;-83
2021/11/19 12:51:55;;;;;;;9.93;4.00;;;9.20;99.90;;;;;;5092197;28;20182;-84
2021/11/19 12:54:31;;;;;;;10.20;5.17;;;9.50;99.90;;;;;;5093256;28;20261;-84
2021/11/19 12:57:35;;;;;;;7.40;4.63;;;9.30;99.90;;;;;;5091440;28;20568;-83
2021/11/19 13:00:06;;;;;;;6.80;4.37;;;9.50;99.90;;;;;;5088684;28;20182;-84
2021/11/19 13:02:48;;;;;;;6.10;3.40;;;9.40;99.90;;;;;;5094241;28;20182;-83
2021/11/19 13:05:18;;;;;;;4.50;3.47;;;9.50;99.90;;;;;;5094057;28;20233;-84
2021/11/19 13:07:46;;;;;;;5.83;4.27;;;;;;;;;;5090205;28;20186;-83
2021/11/19 13:10:14;;;;;;;3.63;3.00;;;9.90;99.90;;;;;;5095557;28;20211;-81
2021/11/19 13:13:02;;;;;;;5.33;4.03;;;9.70;99.90;;;;;;5090165;28;20186;-82
2021/11/19 13:15:33;;;;;;;4.37;3.20;;;9.50;99.90;;;;;;5079265;28;20215;-82
2021/11/19 13:18:25;;;;;;;4.37;3.20;;;9.50;99.90;;;;;;5084373;28;20178;-83
2021/11/19 13:20:54;;;;;;;6.10;4.40;;;9.60;99.90;;;;;;5085556;28;20212;-82
2021/11/19 13:23:32;;;;;;;3.37;2.50;;;9.60;99.90;;;;;;5092702;28;20179;-82
2021/11/19 13:26:21;;;;;;;3.33;2.47;;;9.50;99.90;;;;;;5094314;28;20178;-83
2021/11/19 13:28:47;;;;;;;6.87;5.50;;;;;;;;;;5044767;28;20182;-84
2021/11/19 13:31:22;;;;;;;4.13;3.00;;;9.50;99.90;;;;;;5091944;28;20174;-83
2021/11/19 13:34:03;;;;;;;3.17;2.73;;;9.20;99.90;;;;;;5093294;28;20217;-82
2021/11/19 13:36:37;;;;;;;5.53;4.30;;;9.30;99.90;;;;;;5089703;28;20211;-83
2021/11/19 13:39:31;;;;;;;4.43;3.80;;;9.40;99.90;;;;;;5085444;28;20226;-83